Nearby METAR Reports

 

KSJC - San Jose, California, USA
Distance from station: NE 9mi, 14km
Updated: Mon, 23-Oct-2017 12:53am MDT
Clear
Clear
 Wind from SSE
Wind: SSE 3 mph , 6 km/h
Temperature: 57°F , 14°C
Dew Point: 52°F , 11°C
Humidity: 82%
Barometer: 30.27 inHg , 1025.1 hPa
Clouds: Clear
Visibility: 10 miles , 16 km
2017/10/23 06:53 KSJC 230653Z 15003KT 10SM CLR 14/11 A3027 RMK AO2 SLP248 LAST T01440111 $
KNUQ - Moffett Nas/Mtn, California, USA
Distance from station: N 9mi, 14km
Updated: Mon, 23-Oct-2017 12:56am MDT
Clear
Clear
 Wind from calm
Wind: Calm
Temperature: 61°F , 16°C
Dew Point: 52°F , 11°C
Humidity: 72%
Barometer: 30.27 inHg , 1025.1 hPa
Clouds: Clear
Visibility: 10 miles , 16 km
2017/10/23 06:56 KNUQ 230656Z 00000KT 10SM CLR 16/11 A3027 RMK AO2 SLP252 T01560111
 
KPAO - Palo Alto, California, USA
Distance from station: NNW 14mi, 23km
Updated: Sun, 22-Oct-2017 9:47pm MDT
NOT Current
Clear
Clear
 Wind from varies
Wind: varies 6 mph , 9 km/h
Temperature: 59°F , 15°C
Dew Point: 54°F , 12°C
Humidity: 82%
Barometer: 30.26 inHg , 1024.7 hPa
Clouds: Clear
Visibility: 10 miles , 16 km
2017/10/23 03:47 KPAO 230347Z VRB05KT 10SM SKC 15/12 A3026 RMK LAST
KRHV - San Jose/Reid, California, USA
Distance from station: ENE 12mi, 19km
Updated: Sun, 22-Oct-2017 10:47pm MDT
NOT Current
Clear
Clear
 Wind from calm
Wind: Calm
Temperature: 59°F , 15°C
Dew Point: 52°F , 11°C
Humidity: 77%
Barometer: 30.31 inHg , 1026.4 hPa
Clouds: Clear
Visibility: 8 miles , 13 km
2017/10/23 04:47 KRHV 230447Z 00000KT 8SM SKC 15/11 A3031 RMK LAST
 
KOAK - Oakland, California, USA
Distance from station: NNW 31mi, 50km
Updated: Mon, 23-Oct-2017 12:53am MDT
Clear
Clear
 Wind from NE
Wind: NE 3 mph , 6 km/h
Temperature: 57°F , 14°C
Dew Point: 54°F , 12°C
Humidity: 88%
Barometer: 30.27 inHg , 1025.1 hPa
Clouds: Clear
Visibility: 10 miles , 16 km
2017/10/23 06:53 KOAK 230653Z 05003KT 10SM CLR 14/12 A3027 RMK AO2 SLP248 T01390117 $
KSQL - San Carlos Airpo, California, USA
Distance from station: NW 21mi, 34km
Updated: Mon, 23-Oct-2017 1:35am MDT
Clear
Clear
 Wind from calm
Wind: Calm
Temperature: 57°F , 14°C
Dew Point: 52°F , 11°C
Humidity: 82%
Barometer: 30.27 inHg , 1025.1 hPa
Clouds: Clear
Visibility: 10 miles , 16 km
2017/10/23 07:35 KSQL 230735Z AUTO 00000KT 10SM CLR 14/11 A3027 RMK AO2
 
KSFO - San Francisco, California, USA
Distance from station: NW 30mi, 49km
Updated: Mon, 23-Oct-2017 12:56am MDT
Clear
Clear
 Wind from SSW
Wind: SSW 3 mph , 6 km/h
Temperature: 61°F , 16°C
Dew Point: 52°F , 11°C
Humidity: 72%
Barometer: 30.26 inHg , 1024.7 hPa
Clouds: Clear
Visibility: 10 miles , 16 km
2017/10/23 06:56 KSFO 230656Z 20003KT 10SM CLR 16/11 A3026 RMK AO2 SLP247 T01560106
KE16 - San Martin, California, USA
Distance from station: ESE 27mi, 43km
Updated: Mon, 23-Oct-2017 1:35am MDT
Light rain, Clear
Light rain, Clear
 Wind from calm
Wind: Calm
Temperature: 54°F , 12°C
Dew Point: 48°F , 9°C
Humidity: 82%
Barometer: 30.29 inHg , 1025.7 hPa
Summary: Light rain
Clouds: Clear
Visibility: 10 miles , 16 km
2017/10/23 07:35 KE16 230735Z AUTO 00000KT 10SM -RA CLR 12/09 A3029 RMK AO2
 
KWVI - Watsonville, California, USA
Distance from station: SSE 27mi, 44km
Updated: Mon, 23-Oct-2017 12:53am MDT
Clear
Clear
 Wind from NW
Wind: NW 5 mph , 7 km/h
Temperature: 55°F , 13°C
Dew Point: 54°F , 12°C
Humidity: 94%
Barometer: 30.26 inHg , 1024.7 hPa
Clouds: Clear
Visibility: 10 miles , 16 km
2017/10/23 06:53 KWVI 230653Z AUTO 31004KT 10SM CLR 13/12 A3026 RMK AO2 SLP247 T01330122 $
KHAF - Half Moon Bay, California, USA
Distance from station: WNW 31mi, 50km
Updated: Mon, 23-Oct-2017 1:35am MDT
Mist, Clear
Mist, Clear
 Wind from calm
Wind: Calm
Temperature: 55°F , 13°C
Dew Point: 52°F , 11°C
Humidity: 88%
Barometer: 30.23 inHg , 1023.7 hPa
Summary: Mist
Clouds: Clear
Visibility: 3 miles , 5 km
2017/10/23 07:35 KHAF 230735Z AUTO 00000KT 3SM BR CLR 13/11 A3023 RMK AO2
 
KHWD - Hayward, California, USA
Distance from station: N 28mi, 44km
Updated: Mon, 23-Oct-2017 12:54am MDT
Clear
Clear
 Wind from calm
Wind: Calm
Temperature: 59°F , 15°C
Dew Point: 46°F , 8°C
Humidity: 63%
Barometer: 30.26 inHg , 1024.7 hPa
Clouds: Clear
Visibility: 10 miles , 16 km
2017/10/23 06:54 KHWD 230654Z AUTO 00000KT 10SM CLR 15/08 A3026 RMK AO2 SLP255 T01500083 PNO
KLVK - Livermore, California, USA
Distance from station: NNE 31mi, 51km
Updated: Mon, 23-Oct-2017 12:53am MDT
Clear
Clear
 Wind from calm
Wind: Calm
Temperature: 57°F , 14°C
Dew Point: 46°F , 8°C
Humidity: 67%
Barometer: 30.27 inHg , 1025.1 hPa
Clouds: Clear
Visibility: 10 miles , 16 km
2017/10/23 06:53 KLVK 230653Z AUTO 00000KT 10SM CLR 14/08 A3027 RMK AO2 SLP249 T01390083